createdAt,value
2022-08-12T00:00:09.299Z,32.80
2022-08-12T00:00:40.736Z,32.90
2022-08-12T00:01:12.167Z,33.27
2022-08-12T00:02:03.552Z,32.98
2022-08-12T00:02:35.081Z,32.72
2022-08-12T00:03:06.545Z,33.07
2022-08-12T00:03:38.019Z,32.72
2022-08-12T00:04:09.508Z,32.60
2022-08-12T00:04:40.947Z,33.23
2022-08-12T00:05:12.412Z,32.95
2022-08-12T00:06:03.904Z,32.85
2022-08-12T00:06:35.245Z,32.74
2022-08-12T00:07:06.718Z,32.94
2022-08-12T00:07:38.170Z,33.01
2022-08-12T00:08:09.600Z,33.24
2022-08-12T00:08:41.029Z,33.11
2022-08-12T00:09:12.462Z,33.19
2022-08-12T00:09:43.892Z,32.70
2022-08-12T00:10:15.320Z,33.00
2022-08-12T00:10:46.740Z,33.25
2022-08-12T00:11:18.348Z,33.08
2022-08-12T00:11:49.782Z,32.85
2022-08-12T00:12:21.321Z,33.33
2022-08-12T00:12:53.480Z,33.11
2022-08-12T00:13:24.917Z,33.18
2022-08-12T00:13:56.350Z,32.75
2022-08-12T00:14:27.800Z,33.12
2022-08-12T00:14:59.228Z,32.68
2022-08-12T00:15:30.663Z,33.15
2022-08-12T00:16:02.167Z,33.30
2022-08-12T00:16:33.612Z,32.98
2022-08-12T00:17:05.052Z,33.47
2022-08-12T00:17:36.609Z,32.90
2022-08-12T00:18:08.044Z,32.61
2022-08-12T00:18:39.480Z,32.64
2022-08-12T00:19:10.917Z,32.63
2022-08-12T00:19:42.339Z,33.17
2022-08-12T00:20:13.770Z,33.06
2022-08-12T00:20:45.196Z,33.31
2022-08-12T00:21:16.624Z,32.92
2022-08-12T00:21:48.525Z,32.99
2022-08-12T00:22:19.963Z,33.00
2022-08-12T00:22:58.774Z,33.38
2022-08-12T00:23:30.972Z,33.11
2022-08-12T00:24:02.405Z,33.02
2022-08-12T00:24:33.831Z,33.08
2022-08-12T00:25:05.257Z,33.05
2022-08-12T00:26:01.291Z,33.15
2022-08-12T00:26:28.097Z,33.01
2022-08-12T00:26:59.531Z,32.80
2022-08-12T00:27:43.913Z,32.92
2022-08-12T00:28:15.740Z,32.95
2022-08-12T00:28:47.177Z,33.07
2022-08-12T00:29:18.602Z,32.72
2022-08-12T00:29:50.023Z,32.88
2022-08-12T00:30:21.452Z,33.03
2022-08-12T00:30:52.880Z,32.67
2022-08-12T00:31:24.316Z,33.11
2022-08-12T00:31:55.751Z,32.76
2022-08-12T00:32:52.867Z,32.98
2022-08-12T00:33:18.684Z,33.28
2022-08-12T00:33:53.517Z,33.05
2022-08-12T00:34:24.948Z,33.47
2022-08-12T00:34:57.861Z,33.37
2022-08-12T00:35:36.844Z,32.74
2022-08-12T00:36:08.419Z,33.19
2022-08-12T00:36:44.111Z,33.29
2022-08-12T00:37:16.501Z,33.06
2022-08-12T00:37:47.936Z,33.11
2022-08-12T00:38:19.442Z,32.92
2022-08-12T00:38:50.917Z,33.24
2022-08-12T00:39:22.399Z,32.90
2022-08-12T00:39:53.887Z,33.00
2022-08-12T00:40:25.330Z,33.08
2022-08-12T00:40:56.767Z,33.12
2022-08-12T00:41:28.200Z,33.19
2022-08-12T00:41:59.636Z,33.25
2022-08-12T00:42:31.152Z,33.04
2022-08-12T00:43:02.604Z,33.32
2022-08-12T00:43:34.037Z,33.14
2022-08-12T00:44:07.508Z,33.07
2022-08-12T00:44:38.944Z,33.19
2022-08-12T00:45:10.902Z,32.83
2022-08-12T00:45:42.417Z,32.94
2022-08-12T00:46:13.853Z,33.35
2022-08-12T00:46:45.296Z,33.07
2022-08-12T00:47:24.843Z,33.06
2022-08-12T00:47:57.257Z,32.98
2022-08-12T00:48:28.679Z,33.20
2022-08-12T00:49:00.099Z,33.03
2022-08-12T00:49:31.584Z,33.12
2022-08-12T00:50:03.016Z,32.90
2022-08-12T00:50:34.497Z,33.05
2022-08-12T00:51:05.920Z,33.36
2022-08-12T00:51:38.073Z,32.95
2022-08-12T00:52:09.811Z,33.14
2022-08-12T00:52:41.339Z,33.12
2022-08-12T00:53:12.896Z,33.04
2022-08-12T00:53:44.361Z,32.89
2022-08-12T00:54:15.793Z,33.29
2022-08-12T00:54:47.224Z,32.99
2022-08-12T00:55:18.661Z,33.09
2022-08-12T00:55:50.097Z,33.10
2022-08-12T00:56:21.525Z,33.17
2022-08-12T00:56:52.951Z,33.55
2022-08-12T00:57:24.383Z,32.97
2022-08-12T00:57:55.812Z,33.21
2022-08-12T00:58:27.243Z,32.79
2022-08-12T00:58:58.775Z,33.55
2022-08-12T00:59:30.205Z,33.37
2022-08-12T01:00:01.636Z,33.27
2022-08-12T01:00:33.067Z,33.12
2022-08-12T01:01:04.538Z,32.86
2022-08-12T01:02:11.592Z,33.04
2022-08-12T01:02:27.414Z,33.11
2022-08-12T01:02:58.867Z,32.79
2022-08-12T01:03:30.332Z,33.18
2022-08-12T01:04:01.882Z,33.18
2022-08-12T01:04:34.022Z,33.09
2022-08-12T01:05:05.691Z,32.84
2022-08-12T01:05:37.125Z,33.20
2022-08-12T01:06:08.681Z,33.37
2022-08-12T01:06:40.117Z,32.77
2022-08-12T01:07:11.549Z,33.38
2022-08-12T01:07:42.982Z,33.47
2022-08-12T01:08:14.417Z,33.59
2022-08-12T01:08:45.904Z,32.95
2022-08-12T01:09:17.472Z,33.10
2022-08-12T01:09:48.932Z,33.24
2022-08-12T01:10:20.364Z,33.27
2022-08-12T01:11:01.208Z,33.01
2022-08-12T01:11:32.660Z,33.43
2022-08-12T01:12:04.114Z,32.99
2022-08-12T01:12:35.609Z,33.55
2022-08-12T01:13:07.514Z,33.49
2022-08-12T01:13:51.264Z,33.36
2022-08-12T01:14:22.729Z,33.25
2022-08-12T01:14:54.157Z,33.56
2022-08-12T01:15:25.580Z,33.30
2022-08-12T01:15:57.007Z,33.25
2022-08-12T01:16:28.434Z,33.23
2022-08-12T01:16:59.861Z,33.60
2022-08-12T01:17:31.287Z,32.88
2022-08-12T01:18:02.727Z,33.14
2022-08-12T01:18:35.504Z,33.19
2022-08-12T01:19:06.931Z,33.37
2022-08-12T01:19:38.429Z,33.51
2022-08-12T01:20:09.856Z,33.55
2022-08-12T01:20:41.284Z,32.92
2022-08-12T01:21:12.717Z,33.11
2022-08-12T01:21:44.145Z,33.58
2022-08-12T01:22:15.595Z,33.23
2022-08-12T01:22:47.026Z,33.01
2022-08-12T01:23:18.454Z,33.57
2022-08-12T01:23:49.886Z,33.65
2022-08-12T01:24:30.425Z,33.14
2022-08-12T01:25:03.137Z,33.29
2022-08-12T01:25:38.463Z,33.57
2022-08-12T01:26:25.985Z,33.59
2022-08-12T01:26:57.422Z,33.42
2022-08-12T01:27:28.855Z,33.19
2022-08-12T01:28:00.285Z,33.18
2022-08-12T01:28:31.712Z,33.05
2022-08-12T01:29:03.149Z,33.50
2022-08-12T01:29:34.621Z,33.23
2022-08-12T01:30:06.053Z,32.89
2022-08-12T01:30:37.488Z,33.15
2022-08-12T01:31:11.281Z,33.72
2022-08-12T01:31:43.738Z,33.20
2022-08-12T01:32:15.171Z,33.59
2022-08-12T01:32:46.603Z,33.06
2022-08-12T01:33:18.035Z,33.25
2022-08-12T01:33:49.468Z,33.35
2022-08-12T01:34:35.399Z,33.41
2022-08-12T01:35:07.528Z,33.03
2022-08-12T01:35:38.956Z,33.06
2022-08-12T01:36:10.528Z,33.47
2022-08-12T01:36:41.956Z,33.44
2022-08-12T01:37:13.383Z,33.10
2022-08-12T01:37:44.824Z,33.38
2022-08-12T01:38:16.256Z,33.18
2022-08-12T01:38:47.689Z,32.92
2022-08-12T01:39:19.185Z,33.34
2022-08-12T01:40:33.495Z,33.33
2022-08-12T01:40:46.835Z,33.48
2022-08-12T01:41:18.510Z,33.46
2022-08-12T01:41:52.099Z,33.01
2022-08-12T01:42:25.387Z,33.26
2022-08-12T01:42:56.845Z,33.46
2022-08-12T01:43:28.278Z,33.47
2022-08-12T01:43:59.714Z,33.34
2022-08-12T01:44:31.144Z,33.35
2022-08-12T01:45:02.656Z,33.67
2022-08-12T01:45:42.955Z,33.08
2022-08-12T01:46:15.099Z,33.14
2022-08-12T01:46:46.594Z,33.67
2022-08-12T01:47:18.031Z,33.47
2022-08-12T01:47:49.541Z,33.39
2022-08-12T01:48:21.034Z,33.23
2022-08-12T01:48:52.464Z,33.60
2022-08-12T01:49:23.897Z,33.50
2022-08-12T01:49:55.324Z,33.30
2022-08-12T01:50:26.848Z,33.30
2022-08-12T01:51:00.316Z,33.65
2022-08-12T01:52:16.347Z,33.45
2022-08-12T01:52:24.223Z,33.61
2022-08-12T01:52:55.658Z,33.42
2022-08-12T01:53:27.091Z,33.34
2022-08-12T01:53:58.523Z,33.59
2022-08-12T01:54:29.962Z,33.48
2022-08-12T01:55:01.388Z,33.29
2022-08-12T01:55:32.916Z,33.55
2022-08-12T01:56:04.348Z,33.59
2022-08-12T01:56:35.776Z,33.40
2022-08-12T01:57:07.208Z,33.11
2022-08-12T01:57:58.298Z,33.24
2022-08-12T01:58:30.041Z,33.46
2022-08-12T01:59:03.472Z,33.14
2022-08-12T01:59:34.898Z,33.60
2022-08-12T02:00:06.331Z,33.85
2022-08-12T02:00:46.122Z,33.59
2022-08-12T02:01:27.151Z,33.25
2022-08-12T02:01:58.604Z,33.66
2022-08-12T02:02:30.028Z,33.17
2022-08-12T02:03:01.449Z,33.74
2022-08-12T02:03:32.875Z,33.84
2022-08-12T02:04:04.305Z,33.52
2022-08-12T02:04:35.748Z,33.53
2022-08-12T02:05:07.179Z,33.33
2022-08-12T02:05:38.712Z,33.19
2022-08-12T02:06:10.169Z,33.24
2022-08-12T02:06:41.658Z,33.63
2022-08-12T02:07:13.244Z,33.26
2022-08-12T02:07:44.680Z,33.13
2022-08-12T02:08:16.108Z,33.35
2022-08-12T02:08:47.531Z,33.61
2022-08-12T02:09:23.787Z,33.53
2022-08-12T02:09:55.214Z,33.59
2022-08-12T02:10:50.401Z,33.49
2022-08-12T02:11:18.253Z,33.25
2022-08-12T02:11:49.819Z,33.64
2022-08-12T02:12:28.558Z,33.59
2022-08-12T02:13:08.978Z,33.14
2022-08-12T02:13:49.204Z,33.31
2022-08-12T02:14:21.325Z,33.77
2022-08-12T02:14:52.750Z,33.42
2022-08-12T02:15:24.171Z,33.17
2022-08-12T02:15:55.609Z,33.42
2022-08-12T02:16:27.104Z,33.64
2022-08-12T02:16:58.537Z,33.71
2022-08-12T02:17:56.157Z,33.46
2022-08-12T02:18:21.397Z,33.68
2022-08-12T02:18:52.836Z,33.12
2022-08-12T02:19:24.267Z,33.70
2022-08-12T02:19:55.697Z,33.37
2022-08-12T02:20:51.156Z,33.49
2022-08-12T02:21:18.533Z,33.05
2022-08-12T02:21:50.080Z,33.90
2022-08-12T02:22:21.510Z,33.77
2022-08-12T02:22:52.941Z,33.52
2022-08-12T02:23:24.371Z,33.66
2022-08-12T02:23:55.797Z,33.31
2022-08-12T02:24:28.500Z,33.76
2022-08-12T02:24:59.988Z,33.94
2022-08-12T02:25:31.425Z,33.01
2022-08-12T02:26:02.856Z,33.61
2022-08-12T02:26:34.292Z,33.13
2022-08-12T02:27:05.775Z,33.84
2022-08-12T02:27:37.200Z,33.52
2022-08-12T02:28:08.657Z,33.35
2022-08-12T02:28:40.088Z,33.66
2022-08-12T02:29:11.519Z,33.66
2022-08-12T02:29:42.949Z,33.32
2022-08-12T02:30:14.391Z,33.37
2022-08-12T02:30:45.812Z,33.46
2022-08-12T02:31:17.246Z,33.98
2022-08-12T02:31:48.676Z,33.33
2022-08-12T02:32:20.136Z,33.56
2022-08-12T02:32:51.634Z,33.66
2022-08-12T02:33:23.067Z,33.40
2022-08-12T02:33:54.492Z,33.47
2022-08-12T02:34:25.923Z,33.72
2022-08-12T02:34:57.361Z,33.40
2022-08-12T02:35:28.865Z,33.58
2022-08-12T02:36:00.301Z,33.40
2022-08-12T02:36:31.734Z,33.33
2022-08-12T02:37:05.182Z,33.71
2022-08-12T02:37:36.673Z,33.44
2022-08-12T02:38:08.103Z,33.37
2022-08-12T02:38:39.537Z,33.64
2022-08-12T02:39:11.061Z,33.65
2022-08-12T02:39:42.547Z,33.82
2022-08-12T02:40:14.008Z,33.80
2022-08-12T02:40:45.455Z,33.54
2022-08-12T02:41:16.904Z,33.28
2022-08-12T02:41:48.338Z,33.97
2022-08-12T02:42:19.775Z,33.56
2022-08-12T02:42:51.338Z,33.98
2022-08-12T02:43:22.779Z,33.39
2022-08-12T02:43:54.220Z,33.74
2022-08-12T02:44:25.655Z,33.58
2022-08-12T02:44:57.089Z,33.99
2022-08-12T02:45:28.531Z,33.66
2022-08-12T02:45:59.964Z,33.77
2022-08-12T02:46:31.392Z,33.48
2022-08-12T02:47:02.829Z,33.49
2022-08-12T02:47:58.663Z,34.00
2022-08-12T02:48:25.785Z,33.56
2022-08-12T02:48:57.361Z,33.88
2022-08-12T02:49:28.799Z,33.70
2022-08-12T02:50:00.227Z,33.88
2022-08-12T02:50:31.730Z,33.70
2022-08-12T02:51:03.152Z,34.00
2022-08-12T02:51:34.591Z,33.48
2022-08-12T02:52:06.025Z,33.85
2022-08-12T02:52:37.465Z,33.69
2022-08-12T02:53:08.895Z,33.97
2022-08-12T02:53:40.457Z,33.67
2022-08-12T02:54:11.894Z,33.85
2022-08-12T02:54:43.328Z,34.06
2022-08-12T02:55:28.945Z,33.92
2022-08-12T02:56:06.169Z,33.61
2022-08-12T02:56:38.136Z,33.79
2022-08-12T02:57:09.697Z,33.79
2022-08-12T02:57:41.124Z,33.51
2022-08-12T02:58:14.627Z,33.65
2022-08-12T02:58:46.421Z,33.71
2022-08-12T02:59:18.285Z,34.02
2022-08-12T02:59:49.717Z,34.12
2022-08-12T03:00:21.186Z,33.94
2022-08-12T03:00:52.668Z,34.14
2022-08-12T03:01:24.217Z,33.85
2022-08-12T03:01:55.676Z,33.92
2022-08-12T03:02:27.102Z,33.89
2022-08-12T03:02:58.536Z,33.78
2022-08-12T03:03:30.029Z,33.72
2022-08-12T03:04:01.504Z,34.14
2022-08-12T03:04:32.942Z,33.75
2022-08-12T03:05:04.377Z,33.76
2022-08-12T03:05:38.691Z,33.57
2022-08-12T03:06:15.928Z,33.81
2022-08-12T03:06:47.353Z,33.57
2022-08-12T03:07:18.792Z,33.89
2022-08-12T03:07:59.421Z,33.68
2022-08-12T03:08:33.100Z,33.75
2022-08-12T03:09:05.453Z,34.10
2022-08-12T03:10:03.585Z,33.53
2022-08-12T03:10:36.817Z,33.59
2022-08-12T03:11:11.942Z,34.01
2022-08-12T03:11:49.017Z,34.20
2022-08-12T03:12:20.554Z,33.78
2022-08-12T03:12:53.396Z,34.16
2022-08-12T03:13:24.969Z,33.56
2022-08-12T03:13:56.405Z,33.93
2022-08-12T03:14:27.881Z,34.03
2022-08-12T03:14:59.324Z,34.05
2022-08-12T03:15:30.761Z,33.92
2022-08-12T03:16:02.200Z,33.91
2022-08-12T03:16:33.792Z,33.92
2022-08-12T03:17:08.333Z,34.49
2022-08-12T03:17:39.759Z,33.71
2022-08-12T03:18:24.869Z,33.49
2022-08-12T03:19:00.147Z,33.88
2022-08-12T03:19:31.700Z,33.91
2022-08-12T03:20:09.977Z,33.99
2022-08-12T03:20:42.613Z,34.23
2022-08-12T03:21:14.035Z,34.04
2022-08-12T03:21:57.971Z,34.00
2022-08-12T03:22:36.852Z,34.17
2022-08-12T03:23:08.280Z,33.79
2022-08-12T03:23:39.699Z,33.93
2022-08-12T03:24:11.134Z,33.93
2022-08-12T03:24:42.605Z,33.64
2022-08-12T03:25:14.036Z,33.95
2022-08-12T03:25:45.465Z,33.96
2022-08-12T03:26:16.900Z,34.33
2022-08-12T03:26:48.325Z,33.91
2022-08-12T03:27:19.759Z,34.30
2022-08-12T03:27:51.188Z,34.21
2022-08-12T03:28:24.037Z,34.01
2022-08-12T03:28:55.626Z,33.82
2022-08-12T03:29:27.061Z,34.09
2022-08-12T03:29:58.592Z,33.96
2022-08-12T03:30:30.037Z,33.94
2022-08-12T03:31:01.481Z,34.25
2022-08-12T03:31:32.919Z,33.90
2022-08-12T03:32:04.343Z,33.95
2022-08-12T03:32:36.768Z,34.49
2022-08-12T03:33:08.285Z,33.98
2022-08-12T03:33:39.703Z,33.83
2022-08-12T03:34:11.212Z,33.91
2022-08-12T03:34:42.656Z,34.44
2022-08-12T03:35:41.378Z,33.96
2022-08-12T03:36:05.600Z,34.40
2022-08-12T03:36:37.035Z,33.90
2022-08-12T03:37:08.518Z,34.02
2022-08-12T03:37:39.947Z,34.06
2022-08-12T03:38:11.818Z,34.16
2022-08-12T03:38:43.400Z,33.97
2022-08-12T03:39:14.853Z,33.94
2022-08-12T03:39:46.334Z,34.12
2022-08-12T03:40:17.906Z,34.34
2022-08-12T03:40:49.336Z,33.90
2022-08-12T03:41:20.764Z,34.42
2022-08-12T03:41:52.197Z,34.16
2022-08-12T03:42:23.631Z,34.19
2022-08-12T03:42:55.057Z,33.92
2022-08-12T03:43:26.487Z,34.22
2022-08-12T03:43:57.909Z,34.00
2022-08-12T03:44:29.349Z,34.07
2022-08-12T03:45:00.776Z,33.95
2022-08-12T03:45:32.283Z,33.94
2022-08-12T03:46:03.715Z,33.96
2022-08-12T03:46:35.151Z,34.36
2022-08-12T03:47:06.582Z,34.34
2022-08-12T03:47:38.018Z,34.07
2022-08-12T03:48:09.453Z,33.97
2022-08-12T03:48:41.553Z,34.06
2022-08-12T03:49:13.004Z,34.16
2022-08-12T03:49:44.436Z,34.02
2022-08-12T03:50:15.869Z,33.90
2022-08-12T03:50:47.356Z,34.57
2022-08-12T03:51:18.780Z,34.43
2022-08-12T03:51:50.214Z,34.37
2022-08-12T03:52:22.136Z,34.12
2022-08-12T03:52:53.560Z,34.44
2022-08-12T03:53:24.988Z,34.35
2022-08-12T03:53:56.432Z,34.31
2022-08-12T03:54:27.860Z,34.09
2022-08-12T03:54:59.290Z,34.21
2022-08-12T03:55:30.716Z,34.29
2022-08-12T03:56:02.237Z,34.09
2022-08-12T03:56:33.662Z,34.22
2022-08-12T03:57:05.086Z,33.94
2022-08-12T03:57:36.519Z,34.13
2022-08-12T03:58:07.958Z,34.00
2022-08-12T03:58:39.465Z,34.06
2022-08-12T03:59:10.887Z,34.54
2022-08-12T03:59:42.316Z,34.16
2022-08-12T04:00:24.070Z,34.24
2022-08-12T04:00:56.153Z,34.71
2022-08-12T04:01:27.713Z,34.46
2022-08-12T04:01:59.209Z,34.28
2022-08-12T04:02:30.678Z,34.45
2022-08-12T04:03:02.148Z,34.38
2022-08-12T04:03:33.573Z,34.54
2022-08-12T04:04:05.003Z,34.52
2022-08-12T04:04:36.432Z,34.23
2022-08-12T04:05:07.863Z,34.18
2022-08-12T04:05:55.986Z,34.29
2022-08-12T04:06:35.624Z,34.09
2022-08-12T04:07:07.409Z,34.69
2022-08-12T04:07:38.833Z,34.27
2022-08-12T04:08:29.578Z,34.17
2022-08-12T04:09:01.013Z,34.54
2022-08-12T04:09:32.440Z,34.62
2022-08-12T04:10:03.869Z,34.12
2022-08-12T04:10:35.304Z,34.50
2022-08-12T04:11:06.727Z,34.41
2022-08-12T04:11:46.998Z,34.26
2022-08-12T04:12:18.731Z,34.14
2022-08-12T04:12:50.163Z,34.42
2022-08-12T04:13:21.588Z,34.71
2022-08-12T04:13:53.015Z,34.48
2022-08-12T04:14:24.440Z,34.00
2022-08-12T04:14:55.867Z,34.53
2022-08-12T04:15:27.293Z,34.36
2022-08-12T04:15:58.721Z,34.38
2022-08-12T04:16:30.153Z,34.60
2022-08-12T04:17:01.594Z,34.26
2022-08-12T04:17:33.021Z,34.56
2022-08-12T04:18:06.097Z,34.82
2022-08-12T04:18:38.575Z,34.50
2022-08-12T04:19:10.012Z,34.64
2022-08-12T04:19:41.446Z,34.37
2022-08-12T04:20:12.872Z,34.36
2022-08-12T04:20:44.471Z,34.30
2022-08-12T04:21:15.900Z,34.54
2022-08-12T04:22:02.803Z,34.54
2022-08-12T04:22:35.094Z,34.17
2022-08-12T04:23:06.558Z,34.64
2022-08-12T04:23:37.981Z,34.80
2022-08-12T04:24:09.412Z,34.47
2022-08-12T04:24:41.040Z,34.55
2022-08-12T04:25:12.517Z,34.54
2022-08-12T04:25:44.285Z,34.35
2022-08-12T04:26:15.713Z,34.35
2022-08-12T04:26:47.184Z,34.87
2022-08-12T04:27:19.837Z,34.52
2022-08-12T04:27:51.280Z,34.78
2022-08-12T04:28:22.704Z,34.62
2022-08-12T04:28:54.136Z,35.00
2022-08-12T04:30:15.914Z,34.31
2022-08-12T04:30:32.807Z,34.55
2022-08-12T04:31:04.960Z,34.66
2022-08-12T04:31:36.402Z,34.83
2022-08-12T04:32:07.988Z,34.37
2022-08-12T04:32:43.825Z,34.78
2022-08-12T04:33:16.096Z,34.40
2022-08-12T04:33:47.547Z,34.43
2022-08-12T04:34:18.973Z,34.92
2022-08-12T04:34:50.411Z,34.59
2022-08-12T04:35:21.845Z,34.60
2022-08-12T04:35:53.271Z,34.75
2022-08-12T04:36:24.709Z,34.74
2022-08-12T04:36:56.135Z,34.67
2022-08-12T04:37:27.570Z,34.55
2022-08-12T04:38:01.040Z,34.53
2022-08-12T04:38:32.669Z,34.62
2022-08-12T04:39:04.100Z,34.90
2022-08-12T04:39:35.611Z,34.29
2022-08-12T04:40:07.102Z,34.67
2022-08-12T04:40:38.540Z,34.61
2022-08-12T04:41:09.965Z,34.83
2022-08-12T04:41:58.350Z,34.60
2022-08-12T04:42:30.240Z,34.33
2022-08-12T04:43:01.969Z,34.48
2022-08-12T04:44:01.480Z,34.41
2022-08-12T04:44:24.982Z,34.32
2022-08-12T04:44:56.419Z,34.40
2022-08-12T04:45:27.903Z,34.88
2022-08-12T04:45:59.335Z,34.76
2022-08-12T04:46:34.346Z,34.64
2022-08-12T04:47:06.348Z,35.04
2022-08-12T04:47:37.877Z,34.46
2022-08-12T04:48:09.311Z,34.29
2022-08-12T04:48:41.108Z,34.66
2022-08-12T04:49:12.532Z,34.68
2022-08-12T04:49:43.966Z,34.69
2022-08-12T04:50:33.766Z,34.69
2022-08-12T04:51:06.888Z,35.06
2022-08-12T04:51:38.320Z,34.93
2022-08-12T04:52:09.754Z,34.52
2022-08-12T04:52:41.450Z,34.55
2022-08-12T04:53:12.968Z,34.69
2022-08-12T04:53:44.399Z,35.02
2022-08-12T04:54:17.273Z,35.04
2022-08-12T04:54:54.642Z,34.78
2022-08-12T04:55:26.073Z,34.63
2022-08-12T04:55:57.496Z,34.99
2022-08-12T04:56:28.936Z,34.77
2022-08-12T04:57:07.112Z,34.68
2022-08-12T04:57:38.536Z,34.86
2022-08-12T04:58:10.110Z,34.55
2022-08-12T04:58:41.550Z,34.79
2022-08-12T04:59:12.976Z,34.68
2022-08-12T04:59:47.797Z,34.71
2022-08-12T05:00:20.293Z,34.59
2022-08-12T05:00:51.717Z,34.92
2022-08-12T05:01:23.162Z,34.18
2022-08-12T05:01:54.686Z,34.66
2022-08-12T05:02:26.176Z,34.83
2022-08-12T05:02:57.718Z,34.75
2022-08-12T05:03:29.274Z,34.79
2022-08-12T05:04:17.932Z,34.62
2022-08-12T05:04:49.364Z,34.83
2022-08-12T05:05:20.798Z,34.98
2022-08-12T05:05:52.224Z,34.68
2022-08-12T05:06:26.811Z,34.68
2022-08-12T05:06:58.582Z,34.88
2022-08-12T05:07:30.014Z,35.20
2022-08-12T05:08:01.460Z,34.97
2022-08-12T05:08:32.995Z,34.85
2022-08-12T05:09:13.146Z,34.98
2022-08-12T05:10:00.441Z,34.84
2022-08-12T05:10:35.739Z,34.96
2022-08-12T05:11:07.629Z,34.90
2022-08-12T05:11:39.069Z,35.19
2022-08-12T05:12:25.435Z,34.51
2022-08-12T05:12:56.978Z,34.44
2022-08-12T05:13:28.408Z,34.68
2022-08-12T05:13:59.837Z,34.71
2022-08-12T05:14:35.623Z,35.03
2022-08-12T05:15:18.906Z,34.81
2022-08-12T05:16:05.594Z,34.83
2022-08-12T05:16:40.449Z,34.74
2022-08-12T05:17:12.044Z,34.79
2022-08-12T05:17:45.488Z,34.39
2022-08-12T05:18:19.703Z,35.07
2022-08-12T05:18:51.862Z,34.85
2022-08-12T05:19:23.287Z,34.56
2022-08-12T05:19:57.102Z,34.60
2022-08-12T05:20:29.613Z,34.62
2022-08-12T05:21:01.312Z,34.96
2022-08-12T05:21:32.741Z,34.83
2022-08-12T05:22:04.169Z,34.91
2022-08-12T05:22:36.903Z,35.03
2022-08-12T05:23:13.146Z,34.72
2022-08-12T05:23:44.752Z,34.76
2022-08-12T05:24:16.297Z,34.61
2022-08-12T05:24:47.728Z,34.61
2022-08-12T05:25:19.161Z,34.95
2022-08-12T05:25:53.654Z,34.54
2022-08-12T05:26:25.090Z,34.78
2022-08-12T05:26:56.526Z,34.68
2022-08-12T05:27:27.956Z,34.64
2022-08-12T05:27:59.607Z,35.17
2022-08-12T05:28:31.189Z,34.34
2022-08-12T05:29:02.620Z,34.43
2022-08-12T05:30:07.678Z,34.95
2022-08-12T05:30:25.445Z,35.15
2022-08-12T05:30:56.865Z,34.93
2022-08-12T05:31:42.623Z,34.56
2022-08-12T05:32:19.697Z,35.10
2022-08-12T05:32:51.132Z,34.66
2022-08-12T05:33:25.224Z,34.93
2022-08-12T05:33:56.677Z,34.98
2022-08-12T05:34:28.102Z,34.71
2022-08-12T05:34:59.534Z,34.35
2022-08-12T05:35:30.964Z,35.05
2022-08-12T05:36:02.387Z,34.75
2022-08-12T05:36:33.816Z,34.85
2022-08-12T05:37:05.252Z,34.81
2022-08-12T05:37:36.688Z,35.06
2022-08-12T05:38:08.123Z,34.57
2022-08-12T05:38:39.629Z,34.84
2022-08-12T05:39:11.122Z,34.81
2022-08-12T05:39:42.658Z,34.98
2022-08-12T05:40:14.127Z,35.19
2022-08-12T05:40:45.556Z,34.96
2022-08-12T05:41:16.989Z,35.18
2022-08-12T05:41:48.427Z,34.67
2022-08-12T05:42:19.865Z,34.67
2022-08-12T05:43:05.785Z,34.77
2022-08-12T05:43:37.216Z,35.20
2022-08-12T05:44:08.748Z,34.71
2022-08-12T05:44:40.177Z,34.75
2022-08-12T05:45:11.608Z,34.78
2022-08-12T05:45:44.971Z,34.97
2022-08-12T05:46:16.478Z,34.92
2022-08-12T05:46:47.917Z,34.97
2022-08-12T05:47:19.346Z,35.08
2022-08-12T05:47:53.786Z,34.90
2022-08-12T05:48:25.633Z,34.87
2022-08-12T05:48:57.119Z,34.94
2022-08-12T05:49:28.613Z,34.90
2022-08-12T05:50:00.048Z,35.01
2022-08-12T05:50:31.491Z,35.30
2022-08-12T05:51:03.011Z,35.25
2022-08-12T05:51:40.646Z,34.67
2022-08-12T05:52:13.107Z,34.62
2022-08-12T05:52:45.352Z,35.06
2022-08-12T05:53:19.540Z,34.74
2022-08-12T05:53:50.976Z,35.17
2022-08-12T05:54:41.208Z,35.01
2022-08-12T05:55:13.937Z,34.75
2022-08-12T05:55:45.370Z,35.06
2022-08-12T05:56:16.804Z,34.79
2022-08-12T05:56:48.240Z,34.54
2022-08-12T05:57:19.684Z,35.32
2022-08-12T05:57:52.371Z,34.65
2022-08-12T05:58:23.804Z,35.25
2022-08-12T05:58:55.228Z,34.96
2022-08-12T05:59:26.693Z,35.09
2022-08-12T05:59:58.136Z,34.94
2022-08-12T06:00:29.561Z,35.08
2022-08-12T06:01:01.073Z,35.14
2022-08-12T06:02:11.343Z,34.58
2022-08-12T06:02:43.983Z,35.08
2022-08-12T06:03:15.525Z,34.73
2022-08-12T06:03:48.978Z,34.94
2022-08-12T06:04:20.539Z,35.14
2022-08-12T06:04:51.959Z,35.21
2022-08-12T06:05:23.389Z,34.84
2022-08-12T06:05:55.882Z,35.28
2022-08-12T06:06:27.823Z,35.00
2022-08-12T06:06:59.555Z,35.25
2022-08-12T06:07:37.412Z,35.22
2022-08-12T06:08:22.508Z,34.97
2022-08-12T06:08:53.939Z,34.85
2022-08-12T06:09:25.585Z,34.82
2022-08-12T06:09:58.508Z,35.17
2022-08-12T06:10:31.628Z,34.86
2022-08-12T06:11:04.395Z,35.26
2022-08-12T06:11:35.888Z,35.07
2022-08-12T06:12:07.346Z,35.01
2022-08-12T06:12:40.247Z,34.96
2022-08-12T06:13:13.113Z,34.90
2022-08-12T06:14:00.671Z,35.15
2022-08-12T06:14:33.638Z,34.84
2022-08-12T06:15:05.068Z,34.77
2022-08-12T06:15:36.689Z,35.15
2022-08-12T06:16:08.123Z,34.70
2022-08-12T06:16:39.629Z,35.28
2022-08-12T06:17:11.641Z,34.92
2022-08-12T06:17:43.156Z,35.05
2022-08-12T06:18:16.420Z,35.12
2022-08-12T06:18:48.094Z,35.02
2022-08-12T06:19:19.561Z,34.87
2022-08-12T06:20:26.238Z,35.21
2022-08-12T06:20:42.770Z,35.49
2022-08-12T06:21:14.210Z,35.19
2022-08-12T06:21:45.650Z,35.41
2022-08-12T06:22:17.197Z,35.29
2022-08-12T06:22:49.030Z,35.24
2022-08-12T06:23:24.335Z,34.81
2022-08-12T06:23:55.977Z,34.97
2022-08-12T06:24:27.454Z,35.19
2022-08-12T06:24:58.913Z,35.17
2022-08-12T06:25:30.349Z,35.76
2022-08-12T06:26:01.779Z,35.27
2022-08-12T06:26:33.221Z,35.34
2022-08-12T06:27:04.653Z,35.84
2022-08-12T06:27:36.095Z,35.01
2022-08-12T06:28:08.491Z,35.00
2022-08-12T06:28:40.067Z,35.47
2022-08-12T06:29:11.752Z,35.07
2022-08-12T06:30:08.329Z,35.31
2022-08-12T06:30:38.033Z,35.16
2022-08-12T06:31:27.332Z,34.54
2022-08-12T06:31:59.055Z,35.25
2022-08-12T06:32:30.618Z,35.33
2022-08-12T06:33:18.611Z,34.95
2022-08-12T06:33:57.607Z,35.09
2022-08-12T06:35:26.455Z,35.58
2022-08-12T06:35:47.571Z,35.29
2022-08-12T06:36:21.114Z,35.63
2022-08-12T06:36:53.450Z,35.31
2022-08-12T06:37:25.724Z,35.05
2022-08-12T06:37:57.634Z,35.40
2022-08-12T06:38:29.504Z,35.42
2022-08-12T06:39:01.254Z,35.15
2022-08-12T06:39:32.984Z,35.32
2022-08-12T06:40:04.602Z,35.26
2022-08-12T06:40:36.430Z,35.24
2022-08-12T06:41:07.956Z,35.53
2022-08-12T06:41:39.434Z,35.71
2022-08-12T06:42:32.987Z,35.37
2022-08-12T06:43:05.129Z,35.59
2022-08-12T06:44:06.951Z,35.82
2022-08-12T06:44:28.143Z,35.84
2022-08-12T06:44:59.764Z,35.75
2022-08-12T06:45:45.044Z,35.62
2022-08-12T06:46:17.887Z,35.82
2022-08-12T06:46:49.570Z,35.70
2022-08-12T06:47:21.153Z,35.74
2022-08-12T06:47:52.712Z,35.60
2022-08-12T06:48:24.135Z,36.24
2022-08-12T06:48:55.660Z,35.71
2022-08-12T06:49:27.152Z,35.14
2022-08-12T06:49:58.585Z,35.78
2022-08-12T06:50:30.097Z,35.36
2022-08-12T06:51:02.263Z,35.82
2022-08-12T06:51:33.728Z,35.45
2022-08-12T06:52:05.177Z,35.42
2022-08-12T06:52:36.604Z,36.02
2022-08-12T06:53:08.070Z,35.63
2022-08-12T06:53:39.507Z,35.48
2022-08-12T06:54:11.048Z,35.80
2022-08-12T06:54:42.482Z,35.84
2022-08-12T06:55:13.912Z,35.62
2022-08-12T06:55:57.968Z,35.76
2022-08-12T06:57:00.219Z,35.26
2022-08-12T06:58:04.421Z,35.80
2022-08-12T06:58:12.948Z,35.67
2022-08-12T06:58:44.413Z,35.79
2022-08-12T06:59:16.067Z,35.81
2022-08-12T06:59:47.560Z,35.80
2022-08-12T07:00:18.989Z,35.16
2022-08-12T07:00:50.711Z,35.68
2022-08-12T07:01:22.198Z,35.54
2022-08-12T07:01:53.693Z,35.75
2022-08-12T07:02:25.126Z,35.35
2022-08-12T07:02:56.560Z,35.67
2022-08-12T07:03:28.068Z,35.26
2022-08-12T07:04:14.225Z,35.51
2022-08-12T07:04:46.011Z,35.64
2022-08-12T07:05:17.443Z,35.77
2022-08-12T07:05:48.896Z,35.87
2022-08-12T07:06:22.376Z,35.47
2022-08-12T07:06:53.820Z,36.06
2022-08-12T07:07:25.261Z,36.01
2022-08-12T07:07:56.700Z,35.52